createdAt,value
2018-10-07T00:00:23.325Z,16.05
2018-10-07T00:02:53.655Z,16.05
2018-10-07T00:05:24.020Z,16.01
2018-10-07T00:07:54.415Z,15.99
2018-10-07T00:10:24.771Z,15.96
2018-10-07T00:12:55.203Z,15.96
2018-10-07T00:15:25.558Z,15.98
2018-10-07T00:17:55.896Z,15.99
2018-10-07T00:20:26.247Z,15.97
2018-10-07T00:22:56.561Z,15.94
2018-10-07T00:25:26.907Z,15.93
2018-10-07T00:27:57.222Z,15.93
2018-10-07T00:30:27.699Z,15.94
2018-10-07T00:32:58.016Z,15.94
2018-10-07T00:35:28.446Z,15.93
2018-10-07T00:37:58.832Z,15.94
2018-10-07T00:40:29.165Z,15.93
2018-10-07T00:42:59.529Z,15.94
2018-10-07T00:45:30.863Z,15.93
2018-10-07T00:48:01.419Z,15.95
2018-10-07T00:50:31.741Z,15.91
2018-10-07T00:53:02.091Z,15.91
2018-10-07T00:55:32.685Z,15.85
2018-10-07T00:58:03.072Z,15.85
2018-10-07T01:00:33.436Z,15.85
2018-10-07T01:03:03.764Z,15.85
2018-10-07T01:05:34.067Z,15.91
2018-10-07T01:08:04.432Z,15.87
2018-10-07T01:10:34.789Z,15.84
2018-10-07T01:13:05.129Z,15.84
2018-10-07T01:15:35.439Z,15.82
2018-10-07T01:18:05.812Z,15.83
2018-10-07T01:20:36.181Z,15.82
2018-10-07T01:23:07.055Z,15.82
2018-10-07T01:25:37.435Z,15.85
2018-10-07T01:28:07.773Z,15.83
2018-10-07T01:30:38.142Z,15.80
2018-10-07T01:33:08.517Z,15.80
2018-10-07T01:35:38.890Z,15.81
2018-10-07T01:38:09.249Z,15.79
2018-10-07T01:40:39.612Z,15.77
2018-10-07T01:43:09.896Z,15.77
2018-10-07T01:45:40.251Z,15.74
2018-10-07T01:48:10.533Z,15.72
2018-10-07T01:50:40.924Z,15.75
2018-10-07T01:53:11.351Z,15.74
2018-10-07T01:55:41.694Z,15.77
2018-10-07T01:58:12.044Z,15.74
2018-10-07T02:00:42.373Z,15.70
2018-10-07T02:03:12.648Z,15.73
2018-10-07T02:05:43.038Z,15.68
2018-10-07T02:08:13.381Z,15.68
2018-10-07T02:10:43.682Z,15.70
2018-10-07T02:13:14.010Z,15.71
2018-10-07T02:15:44.384Z,15.74
2018-10-07T02:18:14.727Z,15.75
2018-10-07T02:20:45.138Z,15.76
2018-10-07T02:23:15.499Z,15.75
2018-10-07T02:25:45.859Z,15.75
2018-10-07T02:28:16.229Z,15.78
2018-10-07T02:30:46.543Z,15.79
2018-10-07T02:33:16.962Z,15.76
2018-10-07T02:35:47.293Z,15.71
2018-10-07T02:38:17.623Z,15.69
2018-10-07T02:40:47.875Z,15.70
2018-10-07T02:43:18.253Z,15.66
2018-10-07T02:45:48.558Z,15.67
2018-10-07T02:48:18.935Z,15.67
2018-10-07T02:50:49.295Z,15.67
2018-10-07T02:53:19.659Z,15.62
2018-10-07T02:55:50.224Z,15.67
2018-10-07T02:58:20.870Z,15.65
2018-10-07T03:00:51.212Z,15.61
2018-10-07T03:03:21.629Z,15.57
2018-10-07T03:05:51.977Z,15.55
2018-10-07T03:08:22.344Z,15.59
2018-10-07T03:10:52.694Z,15.61
2018-10-07T03:13:23.068Z,15.57
2018-10-07T03:15:53.404Z,15.57
2018-10-07T03:18:23.753Z,15.54
2018-10-07T03:20:54.078Z,15.65
2018-10-07T03:23:24.387Z,15.50
2018-10-07T03:25:54.747Z,15.38
2018-10-07T03:28:25.047Z,15.33
2018-10-07T03:30:55.496Z,15.34
2018-10-07T03:33:25.810Z,15.25
2018-10-07T03:35:56.098Z,15.13
2018-10-07T03:38:26.440Z,15.10
2018-10-07T03:40:57.091Z,15.03
2018-10-07T03:43:27.454Z,14.97
2018-10-07T03:45:57.776Z,14.94
2018-10-07T03:48:28.151Z,15.00
2018-10-07T03:50:58.532Z,14.83
2018-10-07T03:53:28.800Z,14.79
2018-10-07T03:55:59.193Z,14.70
2018-10-07T03:58:29.512Z,14.49
2018-10-07T04:00:59.943Z,14.34
2018-10-07T04:03:30.342Z,14.26
2018-10-07T04:06:00.671Z,14.34
2018-10-07T04:08:31.000Z,14.24
2018-10-07T04:11:01.334Z,14.10
2018-10-07T04:13:31.702Z,14.08
2018-10-07T04:16:02.005Z,14.01
2018-10-07T04:18:32.349Z,13.92
2018-10-07T04:21:02.691Z,13.77
2018-10-07T04:23:33.005Z,13.65
2018-10-07T04:26:03.301Z,13.65
2018-10-07T04:28:33.648Z,13.62
2018-10-07T04:31:03.927Z,13.65
2018-10-07T04:33:34.525Z,13.60
2018-10-07T04:36:04.859Z,13.60
2018-10-07T04:38:35.219Z,13.53
2018-10-07T04:41:05.530Z,13.42
2018-10-07T04:43:35.867Z,13.31
2018-10-07T04:46:06.512Z,13.17
2018-10-07T04:48:36.808Z,13.20
2018-10-07T04:51:07.458Z,13.06
2018-10-07T04:53:37.899Z,13.06
2018-10-07T04:56:08.267Z,12.91
2018-10-07T04:58:38.608Z,12.84
2018-10-07T05:01:08.963Z,12.80
2018-10-07T05:03:39.318Z,12.66
2018-10-07T05:06:09.739Z,12.61
2018-10-07T05:08:40.255Z,12.49
2018-10-07T05:11:10.786Z,12.43
2018-10-07T05:13:48.911Z,12.42
2018-10-07T05:16:35.356Z,12.39
2018-10-07T05:19:06.267Z,12.45
2018-10-07T05:21:36.613Z,12.38
2018-10-07T05:24:07.027Z,12.32
2018-10-07T05:26:37.431Z,12.28
2018-10-07T05:29:07.762Z,12.28
2018-10-07T05:31:38.100Z,12.24
2018-10-07T05:34:08.485Z,12.22
2018-10-07T05:36:38.829Z,12.27
2018-10-07T05:39:11.927Z,12.21
2018-10-07T05:41:42.232Z,12.20
2018-10-07T05:44:12.589Z,12.28
2018-10-07T05:46:42.877Z,12.20
2018-10-07T05:49:13.307Z,12.19
2018-10-07T05:51:43.560Z,12.15
2018-10-07T05:54:13.935Z,12.15
2018-10-07T05:56:44.271Z,12.11
2018-10-07T05:59:14.795Z,12.15
2018-10-07T06:01:46.179Z,12.19
2018-10-07T06:04:24.844Z,12.13
2018-10-07T06:06:57.559Z,12.06
2018-10-07T06:09:33.732Z,11.92
2018-10-07T06:12:04.239Z,11.92
2018-10-07T06:14:51.384Z,11.89
2018-10-07T06:17:21.710Z,11.86
2018-10-07T06:19:52.115Z,11.94
2018-10-07T06:22:22.848Z,12.05
2018-10-07T06:24:53.273Z,12.06
2018-10-07T06:27:23.693Z,11.95
2018-10-07T06:29:54.104Z,11.94
2018-10-07T06:32:24.464Z,11.86
2018-10-07T06:34:54.805Z,11.91
2018-10-07T06:37:25.107Z,11.95
2018-10-07T06:39:55.545Z,11.94
2018-10-07T06:42:25.923Z,11.89
2018-10-07T06:44:56.290Z,11.89
2018-10-07T06:47:26.644Z,11.88
2018-10-07T06:49:57.065Z,11.84
2018-10-07T06:52:27.408Z,11.84
2018-10-07T06:54:57.791Z,11.86
2018-10-07T06:57:28.369Z,11.86
2018-10-07T06:59:58.969Z,11.92
2018-10-07T07:02:29.507Z,11.88
2018-10-07T07:04:59.817Z,12.01
2018-10-07T07:07:30.167Z,11.97
2018-10-07T07:10:00.523Z,11.94
2018-10-07T07:12:45.608Z,11.99
2018-10-07T07:15:15.950Z,11.94
2018-10-07T07:17:46.336Z,11.88
2018-10-07T07:20:16.715Z,11.92
2018-10-07T07:22:47.027Z,11.95
2018-10-07T07:25:17.356Z,12.09
2018-10-07T07:27:47.727Z,12.06
2018-10-07T07:30:18.038Z,12.08
2018-10-07T07:32:48.356Z,12.08
2018-10-07T07:35:18.756Z,12.03
2018-10-07T07:37:49.218Z,12.03
2018-10-07T07:40:19.530Z,12.08
2018-10-07T07:42:49.933Z,12.06
2018-10-07T07:45:20.295Z,12.13
2018-10-07T07:47:50.662Z,12.10
2018-10-07T07:50:20.947Z,12.22
2018-10-07T07:52:51.483Z,12.31
2018-10-07T07:55:21.788Z,12.38
2018-10-07T07:57:52.141Z,12.53
2018-10-07T08:00:22.457Z,12.69
2018-10-07T08:02:52.775Z,12.82
2018-10-07T08:05:23.127Z,12.94
2018-10-07T08:07:53.564Z,13.51
2018-10-07T08:10:23.894Z,14.31
2018-10-07T08:12:54.271Z,14.80
2018-10-07T08:15:24.678Z,15.59
2018-10-07T08:17:55.138Z,16.01
2018-10-07T08:20:25.326Z,16.28
2018-10-07T08:22:55.623Z,16.99
2018-10-07T08:25:25.878Z,17.42
2018-10-07T08:27:56.276Z,17.96
2018-10-07T08:30:26.595Z,18.28
2018-10-07T08:32:56.954Z,18.66
2018-10-07T08:35:27.261Z,19.08
2018-10-07T08:37:57.602Z,19.71
2018-10-07T08:40:27.922Z,19.96
2018-10-07T08:42:58.243Z,20.19
2018-10-07T08:45:28.584Z,20.26
2018-10-07T08:47:58.975Z,20.28
2018-10-07T08:50:29.336Z,19.80
2018-10-07T08:52:59.659Z,19.80
2018-10-07T08:55:29.963Z,19.89
2018-10-07T08:58:00.283Z,20.13
2018-10-07T09:00:30.688Z,20.60
2018-10-07T09:03:01.050Z,20.70
2018-10-07T09:05:31.466Z,20.87
2018-10-07T09:08:01.916Z,21.30
2018-10-07T09:10:32.251Z,21.11
2018-10-07T09:13:02.634Z,20.88
2018-10-07T09:15:33.046Z,20.62
2018-10-07T09:18:03.385Z,20.76
2018-10-07T09:20:33.763Z,20.63
2018-10-07T09:23:04.175Z,20.85
2018-10-07T09:25:34.643Z,20.96
2018-10-07T09:28:05.125Z,21.05
2018-10-07T09:30:37.287Z,20.64
2018-10-07T09:33:07.546Z,20.79
2018-10-07T09:35:37.939Z,21.20
2018-10-07T09:38:08.319Z,21.40
2018-10-07T09:40:38.679Z,21.55
2018-10-07T09:43:08.952Z,21.53
2018-10-07T09:45:39.265Z,21.95
2018-10-07T09:48:09.722Z,22.20
2018-10-07T09:50:40.094Z,22.10
2018-10-07T09:53:10.478Z,22.49
2018-10-07T09:55:40.833Z,22.87
2018-10-07T09:58:11.253Z,23.38
2018-10-07T10:00:42.343Z,23.33
2018-10-07T10:03:12.963Z,22.99
2018-10-07T10:05:43.367Z,22.69
2018-10-07T10:08:13.664Z,22.87
2018-10-07T10:10:44.004Z,22.35
2018-10-07T10:13:14.379Z,22.19
2018-10-07T10:15:44.671Z,22.01
2018-10-07T10:18:51.201Z,22.06
2018-10-07T10:21:38.776Z,22.52
2018-10-07T10:27:26.243Z,22.04
2018-10-07T10:30:07.941Z,22.34
2018-10-07T10:32:55.003Z,22.20
2018-10-07T10:35:38.891Z,22.56
2018-10-07T10:38:25.598Z,22.25
2018-10-07T10:41:11.484Z,22.62
2018-10-07T10:43:57.210Z,22.56
2018-10-07T10:46:39.293Z,22.72
2018-10-07T10:49:21.022Z,22.81
2018-10-07T10:52:20.845Z,23.16
2018-10-07T10:54:58.861Z,23.45
2018-10-07T10:57:41.772Z,24.04
2018-10-07T11:00:50.939Z,24.03
2018-10-07T11:04:33.300Z,24.11
2018-10-07T11:07:25.180Z,24.30
2018-10-07T11:10:11.353Z,23.57
2018-10-07T11:12:55.931Z,23.48
2018-10-07T11:15:39.856Z,23.52
2018-10-07T11:19:29.666Z,23.31
2018-10-07T11:22:17.084Z,23.14
2018-10-07T11:26:04.848Z,23.22
2018-10-07T11:31:04.131Z,23.59
2018-10-07T11:34:16.277Z,23.56
2018-10-07T11:37:23.908Z,23.64
2018-10-07T11:40:11.266Z,23.66
2018-10-07T11:42:50.062Z,23.43
2018-10-07T11:45:31.870Z,23.64
2018-10-07T11:49:15.199Z,24.02
2018-10-07T11:51:58.847Z,24.29
2018-10-07T11:55:02.095Z,24.29
2018-10-07T11:57:32.397Z,24.29
2018-10-07T12:00:03.236Z,24.35
2018-10-07T12:02:33.565Z,23.72
2018-10-07T12:05:03.911Z,23.94
2018-10-07T12:07:34.304Z,23.88
2018-10-07T12:10:04.795Z,24.29
2018-10-07T12:12:35.076Z,24.44
2018-10-07T12:15:05.651Z,24.55
2018-10-07T12:17:36.032Z,24.34
2018-10-07T12:20:06.663Z,24.53
2018-10-07T12:22:36.985Z,24.49
2018-10-07T12:25:07.394Z,24.46
2018-10-07T12:27:37.731Z,24.43
2018-10-07T12:30:08.182Z,23.93
2018-10-07T12:32:38.556Z,23.93
2018-10-07T12:35:08.967Z,24.38
2018-10-07T12:37:39.293Z,24.70
2018-10-07T12:40:09.765Z,24.87
2018-10-07T12:42:40.116Z,24.79
2018-10-07T12:45:10.484Z,24.83
2018-10-07T12:47:40.853Z,24.81
2018-10-07T12:50:11.187Z,24.82
2018-10-07T12:52:42.363Z,24.94
2018-10-07T12:55:12.676Z,25.18
2018-10-07T12:57:43.046Z,25.14
2018-10-07T13:00:13.388Z,25.07
2018-10-07T13:02:43.729Z,25.00
2018-10-07T13:05:14.043Z,25.08
2018-10-07T13:07:44.380Z,25.32
2018-10-07T13:10:14.737Z,25.28
2018-10-07T13:12:45.052Z,25.39
2018-10-07T13:15:15.466Z,25.28
2018-10-07T13:17:45.812Z,24.81
2018-10-07T13:20:16.173Z,25.27
2018-10-07T13:22:46.545Z,25.38
2018-10-07T13:25:16.926Z,25.51
2018-10-07T13:27:47.283Z,25.24
2018-10-07T13:30:17.640Z,25.28
2018-10-07T13:32:47.945Z,25.31
2018-10-07T13:35:18.288Z,25.07
2018-10-07T13:37:48.598Z,24.84
2018-10-07T13:40:18.923Z,24.08
2018-10-07T13:42:49.231Z,24.28
2018-10-07T13:45:19.588Z,24.64
2018-10-07T13:47:49.974Z,24.76
2018-10-07T13:50:20.272Z,24.98
2018-10-07T13:52:50.559Z,25.03
2018-10-07T13:55:20.905Z,24.97
2018-10-07T13:57:51.231Z,24.52
2018-10-07T14:00:21.513Z,24.44
2018-10-07T14:02:51.884Z,24.43
2018-10-07T14:07:59.860Z,24.25
2018-10-07T14:10:30.157Z,24.14
2018-10-07T14:13:00.459Z,23.73
2018-10-07T14:15:30.780Z,24.13
2018-10-07T14:18:01.049Z,24.42
2018-10-07T14:20:31.407Z,24.68
2018-10-07T14:23:01.781Z,25.02
2018-10-07T14:25:32.166Z,25.36
2018-10-07T14:28:02.531Z,25.49
2018-10-07T14:30:32.875Z,25.44
2018-10-07T14:33:03.212Z,25.17
2018-10-07T14:35:33.569Z,24.98
2018-10-07T14:38:03.952Z,24.47
2018-10-07T14:40:34.224Z,24.19
2018-10-07T14:43:04.630Z,24.34
2018-10-07T14:45:34.936Z,24.29
2018-10-07T14:48:05.259Z,24.51
2018-10-07T14:50:35.619Z,24.45
2018-10-07T14:53:06.188Z,24.57
2018-10-07T14:55:36.518Z,24.58
2018-10-07T14:58:07.284Z,24.67
2018-10-07T15:00:37.712Z,24.67
2018-10-07T15:03:08.055Z,24.38
2018-10-07T15:05:38.355Z,24.41
2018-10-07T15:08:08.698Z,24.01
2018-10-07T15:10:39.049Z,23.69
2018-10-07T15:13:09.380Z,23.30
2018-10-07T15:15:39.704Z,22.90
2018-10-07T15:18:10.001Z,22.77
2018-10-07T15:20:40.343Z,22.39
2018-10-07T15:23:10.622Z,22.12
2018-10-07T15:25:40.930Z,21.80
2018-10-07T15:28:11.279Z,21.28
2018-10-07T15:30:41.613Z,20.68
2018-10-07T15:33:11.932Z,20.30
2018-10-07T15:35:42.321Z,20.04
2018-10-07T15:38:12.670Z,19.76
2018-10-07T15:40:42.984Z,19.59
2018-10-07T15:43:13.362Z,19.37
2018-10-07T15:45:43.779Z,19.12
2018-10-07T15:48:14.128Z,19.00
2018-10-07T15:50:44.447Z,18.97
2018-10-07T15:53:14.806Z,18.91
2018-10-07T15:55:45.126Z,18.78
2018-10-07T15:58:15.464Z,18.79
2018-10-07T16:00:45.781Z,18.96
2018-10-07T16:03:16.095Z,19.12
2018-10-07T16:05:46.465Z,19.22
2018-10-07T16:08:16.865Z,19.16
2018-10-07T16:10:47.276Z,19.07
2018-10-07T16:13:17.587Z,18.90
2018-10-07T16:15:47.897Z,18.59
2018-10-07T16:18:18.291Z,18.39
2018-10-07T16:20:48.614Z,18.13
2018-10-07T16:23:19.123Z,17.94
2018-10-07T16:25:49.580Z,17.78
2018-10-07T16:28:19.992Z,17.50
2018-10-07T16:30:50.662Z,17.26
2018-10-07T16:33:21.151Z,17.11
2018-10-07T16:35:51.541Z,16.95
2018-10-07T16:38:21.901Z,16.85
2018-10-07T16:40:52.323Z,16.87
2018-10-07T16:43:22.688Z,16.72
2018-10-07T16:45:53.049Z,16.58
2018-10-07T16:48:23.396Z,16.44
2018-10-07T16:50:53.743Z,16.27
2018-10-07T16:53:24.116Z,16.14
2018-10-07T16:55:54.446Z,15.98
2018-10-07T16:58:24.787Z,15.90
2018-10-07T17:00:55.128Z,15.78
2018-10-07T17:03:25.477Z,15.61
2018-10-07T17:05:55.860Z,15.47
2018-10-07T17:08:26.184Z,15.40
2018-10-07T17:10:56.504Z,15.31
2018-10-07T17:13:26.917Z,15.25
2018-10-07T17:15:57.193Z,15.14
2018-10-07T17:18:27.519Z,15.08
2018-10-07T17:20:57.917Z,15.02
2018-10-07T17:23:28.210Z,14.89
2018-10-07T17:25:58.549Z,14.80
2018-10-07T17:28:28.849Z,14.72
2018-10-07T17:30:59.194Z,14.62
2018-10-07T17:33:29.563Z,14.62
2018-10-07T17:36:00.628Z,14.55
2018-10-07T17:38:30.995Z,14.52
2018-10-07T17:41:01.352Z,14.42
2018-10-07T17:43:31.669Z,14.38
2018-10-07T17:46:02.055Z,14.29
2018-10-07T17:48:32.422Z,14.23
2018-10-07T17:51:02.700Z,14.15
2018-10-07T17:53:32.995Z,14.08
2018-10-07T17:56:03.349Z,14.03
2018-10-07T17:58:33.666Z,14.00
2018-10-07T18:01:04.039Z,13.95
2018-10-07T18:03:34.395Z,13.89
2018-10-07T18:06:04.735Z,13.84
2018-10-07T18:08:35.117Z,13.78
2018-10-07T18:11:05.541Z,13.72
2018-10-07T18:14:06.549Z,13.67
2018-10-07T18:16:36.906Z,13.60
2018-10-07T18:19:07.320Z,13.57
2018-10-07T18:21:37.681Z,13.51
2018-10-07T18:24:08.064Z,13.46
2018-10-07T18:26:38.430Z,13.39
2018-10-07T18:29:08.837Z,13.36
2018-10-07T18:31:39.179Z,13.30
2018-10-07T18:34:09.548Z,13.26
2018-10-07T18:36:39.957Z,13.18
2018-10-07T18:39:10.278Z,13.14
2018-10-07T18:41:40.980Z,13.08
2018-10-07T18:44:11.333Z,13.04
2018-10-07T18:46:41.669Z,12.98
2018-10-07T18:49:12.075Z,12.95
2018-10-07T18:51:42.482Z,12.91
2018-10-07T18:54:12.836Z,12.88
2018-10-07T18:56:43.154Z,12.86
2018-10-07T18:59:13.540Z,12.81
2018-10-07T19:01:43.890Z,12.79
2018-10-07T19:04:14.896Z,12.75
2018-10-07T19:06:45.560Z,12.68
2018-10-07T19:09:15.909Z,12.66
2018-10-07T19:11:46.303Z,12.61
2018-10-07T19:14:16.678Z,12.59
2018-10-07T19:16:46.973Z,12.55
2018-10-07T19:19:17.336Z,12.56
2018-10-07T19:21:47.632Z,12.52
2018-10-07T19:24:17.995Z,12.48
2018-10-07T19:26:48.317Z,12.43
2018-10-07T19:29:18.633Z,12.43
2018-10-07T19:31:48.987Z,12.43
2018-10-07T19:34:19.344Z,12.41
2018-10-07T19:36:49.676Z,12.33
2018-10-07T19:39:20.060Z,12.31
2018-10-07T19:41:50.390Z,12.25
2018-10-07T19:44:20.765Z,12.27
2018-10-07T19:46:51.079Z,12.27
2018-10-07T19:49:21.384Z,12.16
2018-10-07T19:51:51.728Z,12.11
2018-10-07T19:54:22.165Z,12.06
2018-10-07T19:56:52.507Z,12.01
2018-10-07T19:59:22.965Z,11.96
2018-10-07T20:01:53.279Z,11.92
2018-10-07T20:04:23.651Z,11.96
2018-10-07T20:06:53.977Z,11.92
2018-10-07T20:09:24.286Z,11.78
2018-10-07T20:11:54.586Z,11.81
2018-10-07T20:14:24.962Z,11.78
2018-10-07T20:16:55.272Z,11.72
2018-10-07T20:19:25.725Z,11.62
2018-10-07T20:21:55.960Z,11.62
2018-10-07T20:24:26.287Z,11.52
2018-10-07T20:26:56.691Z,11.44
2018-10-07T20:29:27.025Z,11.43
2018-10-07T20:31:57.304Z,11.36
2018-10-07T20:34:27.651Z,11.29
2018-10-07T20:36:58.077Z,11.25
2018-10-07T20:39:28.371Z,11.26
2018-10-07T20:41:58.719Z,11.23
2018-10-07T20:44:29.070Z,11.18
2018-10-07T20:46:59.380Z,11.10
2018-10-07T20:49:29.712Z,11.05
2018-10-07T20:52:00.106Z,11.01
2018-10-07T20:54:30.518Z,10.97
2018-10-07T20:57:01.199Z,10.90
2018-10-07T20:59:31.475Z,10.84
2018-10-07T21:02:01.817Z,10.80
2018-10-07T21:04:32.240Z,10.77
2018-10-07T21:07:02.614Z,10.77
2018-10-07T21:09:32.959Z,10.71
2018-10-07T21:12:03.321Z,10.67
2018-10-07T21:14:33.751Z,10.62
2018-10-07T21:17:04.416Z,10.59
2018-10-07T21:19:34.840Z,10.59
2018-10-07T21:22:05.195Z,10.58
2018-10-07T21:24:35.584Z,10.57
2018-10-07T21:27:06.037Z,10.54
2018-10-07T21:29:36.483Z,10.50
2018-10-07T21:32:06.887Z,10.45
2018-10-07T21:34:37.226Z,10.41
2018-10-07T21:37:07.889Z,10.36
2018-10-07T21:39:38.238Z,10.33
2018-10-07T21:42:09.056Z,10.31
2018-10-07T21:44:39.777Z,10.27
2018-10-07T21:47:10.383Z,10.25
2018-10-07T21:49:41.112Z,10.25
2018-10-07T21:52:11.886Z,10.19
2018-10-07T21:54:42.543Z,10.17
2018-10-07T21:57:13.941Z,10.14
2018-10-07T21:59:44.706Z,10.10
2018-10-07T22:02:15.370Z,10.08
2018-10-07T22:04:46.060Z,10.09
2018-10-07T22:07:19.909Z,10.03
2018-10-07T22:09:50.688Z,9.95
2018-10-07T22:12:21.340Z,9.90
2018-10-07T22:14:51.965Z,9.87
2018-10-07T22:17:22.603Z,9.90
2018-10-07T22:19:53.255Z,9.89
2018-10-07T22:22:23.943Z,9.83
2018-10-07T22:24:54.559Z,9.89
2018-10-07T22:27:25.230Z,9.85
2018-10-07T22:29:55.871Z,9.82
2018-10-07T22:32:26.524Z,9.77
2018-10-07T22:34:57.139Z,9.73
2018-10-07T22:37:27.761Z,9.65
2018-10-07T22:39:58.367Z,9.58
2018-10-07T22:42:29.048Z,9.53
2018-10-07T22:44:59.637Z,9.48
2018-10-07T22:47:30.279Z,9.40
2018-10-07T22:50:00.936Z,9.33
2018-10-07T22:52:31.549Z,9.34
2018-10-07T22:55:02.180Z,9.31
2018-10-07T22:57:32.795Z,9.30
2018-10-07T23:00:03.434Z,9.23
2018-10-07T23:02:34.080Z,9.18
2018-10-07T23:05:05.500Z,9.13
2018-10-07T23:07:36.328Z,9.10
2018-10-07T23:10:07.249Z,9.07
2018-10-07T23:12:37.925Z,9.03
2018-10-07T23:15:08.626Z,9.03
2018-10-07T23:17:39.252Z,8.98
2018-10-07T23:20:10.005Z,8.95
2018-10-07T23:22:40.972Z,8.91
2018-10-07T23:25:11.663Z,8.89
2018-10-07T23:27:42.282Z,8.86
2018-10-07T23:30:12.913Z,8.79
2018-10-07T23:32:43.527Z,8.73
2018-10-07T23:35:14.246Z,8.71
2018-10-07T23:37:44.871Z,8.68
2018-10-07T23:40:15.583Z,8.66
2018-10-07T23:42:46.212Z,8.62
2018-10-07T23:45:16.856Z,8.60
2018-10-07T23:47:47.544Z,8.57
2018-10-07T23:50:18.212Z,8.53
2018-10-07T23:52:48.899Z,8.51
2018-10-07T23:55:19.521Z,8.51
2018-10-07T23:57:50.204Z,8.48
